createdAt,value
2023-09-27T00:01:18.590Z,101695.25
2023-09-27T00:04:22.591Z,101681.81
2023-09-27T00:07:25.789Z,101676.00
2023-09-27T00:10:29.131Z,101663.28
2023-09-27T00:13:31.753Z,101666.91
2023-09-27T00:16:34.465Z,101664.88
2023-09-27T00:19:38.488Z,101664.44
2023-09-27T00:22:41.324Z,101659.91
2023-09-27T00:25:44.003Z,101675.44
2023-09-27T00:28:46.682Z,101670.44
2023-09-27T00:31:50.093Z,101685.47
2023-09-27T00:34:54.306Z,101673.97
2023-09-27T00:37:57.680Z,101685.84
2023-09-27T00:41:00.377Z,101680.50
2023-09-27T00:44:03.092Z,101679.53
2023-09-27T00:47:06.926Z,101688.88
2023-09-27T00:50:11.602Z,101694.56
2023-09-27T00:53:14.416Z,101685.34
2023-09-27T00:56:17.875Z,101681.00
2023-09-27T00:59:21.244Z,101672.25
2023-09-27T01:02:24.479Z,101672.38
2023-09-27T01:05:28.656Z,101671.09
2023-09-27T01:08:31.837Z,101667.03
2023-09-27T01:11:34.977Z,101681.19
2023-09-27T01:14:37.656Z,101677.91
2023-09-27T01:17:54.402Z,101677.09
2023-09-27T01:20:58.755Z,101662.28
2023-09-27T01:24:03.172Z,101659.59
2023-09-27T01:27:07.853Z,101669.34
2023-09-27T01:30:11.079Z,101672.03
2023-09-27T01:33:14.243Z,101660.47
2023-09-27T01:36:16.953Z,101664.28
2023-09-27T01:39:20.975Z,101666.97
2023-09-27T01:42:23.995Z,101657.94
2023-09-27T01:45:26.805Z,101655.31
2023-09-27T01:48:29.654Z,101653.88
2023-09-27T01:51:32.555Z,101655.56
2023-09-27T01:54:36.537Z,101646.66
2023-09-27T01:57:39.172Z,101637.72
2023-09-27T02:00:41.864Z,101637.13
2023-09-27T02:03:45.794Z,101641.31
2023-09-27T02:06:48.552Z,101646.88
2023-09-27T02:09:52.591Z,101655.09
2023-09-27T02:12:55.273Z,101650.56
2023-09-27T02:15:57.985Z,101655.19
2023-09-27T02:19:00.736Z,101665.63
2023-09-27T02:22:03.903Z,101649.69
2023-09-27T02:25:12.543Z,101663.13
2023-09-27T02:28:15.230Z,101666.75
2023-09-27T02:31:18.561Z,101671.53
2023-09-27T02:34:21.248Z,101670.56
2023-09-27T02:37:23.873Z,101679.44
2023-09-27T02:40:28.413Z,101684.91
2023-09-27T02:43:31.028Z,101699.00
2023-09-27T02:46:33.854Z,101698.25
2023-09-27T02:49:36.926Z,101693.00
2023-09-27T02:52:40.332Z,101686.91
2023-09-27T02:55:44.458Z,101684.47
2023-09-27T02:58:47.131Z,101683.13
2023-09-27T03:01:49.797Z,101685.88
2023-09-27T03:04:52.463Z,101694.56
2023-09-27T03:07:55.107Z,101687.63
2023-09-27T03:11:04.450Z,101690.41
2023-09-27T03:14:07.594Z,101695.91
2023-09-27T03:17:10.396Z,101712.88
2023-09-27T03:20:17.624Z,101710.22
2023-09-27T03:23:21.154Z,101701.25
2023-09-27T03:26:26.011Z,101693.22
2023-09-27T03:29:28.733Z,101695.34
2023-09-27T03:32:33.007Z,101699.09
2023-09-27T03:35:35.903Z,101700.09
2023-09-27T03:38:38.711Z,101711.38
2023-09-27T03:41:43.197Z,101707.22
2023-09-27T03:44:45.864Z,101702.03
2023-09-27T03:47:49.353Z,101703.63
2023-09-27T03:50:52.156Z,101712.72
2023-09-27T03:53:54.794Z,101708.41
2023-09-27T03:56:58.900Z,101706.44
2023-09-27T04:00:01.559Z,101705.69
2023-09-27T04:03:04.638Z,101703.84
2023-09-27T04:06:07.390Z,101699.44
2023-09-27T04:09:10.994Z,101698.59
2023-09-27T04:12:15.477Z,101689.66
2023-09-27T04:15:18.781Z,101695.91
2023-09-27T04:18:21.490Z,101693.25
2023-09-27T04:21:24.287Z,101697.72
2023-09-27T04:24:27.924Z,101703.06
2023-09-27T04:27:31.966Z,101699.59
2023-09-27T04:30:34.746Z,101706.66
2023-09-27T04:33:37.478Z,101709.53
2023-09-27T04:36:40.183Z,101714.06
2023-09-27T04:39:42.831Z,101721.06
2023-09-27T04:42:48.471Z,101715.00
2023-09-27T04:45:52.852Z,101707.19
2023-09-27T04:48:55.534Z,101701.59
2023-09-27T04:51:58.180Z,101711.59
2023-09-27T04:55:00.864Z,101708.66
2023-09-27T04:58:05.404Z,101701.50
2023-09-27T05:01:08.161Z,101707.03
2023-09-27T05:04:10.892Z,101706.94
2023-09-27T05:07:13.609Z,101709.53
2023-09-27T05:10:16.493Z,101709.25
2023-09-27T05:13:22.632Z,101716.31
2023-09-27T05:16:25.408Z,101714.31
2023-09-27T05:19:28.080Z,101715.25
2023-09-27T05:22:30.762Z,101717.78
2023-09-27T05:25:33.510Z,101721.84
2023-09-27T05:28:37.477Z,101732.47
2023-09-27T05:31:40.158Z,101741.31
2023-09-27T05:34:42.869Z,101736.81
2023-09-27T05:37:45.932Z,101727.94
2023-09-27T05:40:48.602Z,101732.44
2023-09-27T05:43:52.582Z,101743.03
2023-09-27T05:46:55.318Z,101739.16
2023-09-27T05:49:58.406Z,101742.66
2023-09-27T05:53:01.267Z,101728.19
2023-09-27T05:56:04.706Z,101733.22
2023-09-27T05:59:12.593Z,101724.88
2023-09-27T06:02:17.916Z,101729.44
2023-09-27T06:05:21.545Z,101738.16
2023-09-27T06:08:24.301Z,101726.41
2023-09-27T06:11:27.135Z,101727.84
2023-09-27T06:14:31.207Z,101733.94
2023-09-27T06:17:34.244Z,101733.00
2023-09-27T06:20:39.963Z,101733.38
2023-09-27T06:23:43.024Z,101738.72
2023-09-27T06:26:45.761Z,101735.91
2023-09-27T06:29:49.749Z,101739.81
2023-09-27T06:32:52.658Z,101738.81
2023-09-27T06:35:55.405Z,101732.09
2023-09-27T06:38:58.097Z,101734.56
2023-09-27T06:42:00.717Z,101723.56
2023-09-27T06:45:05.300Z,101737.88
2023-09-27T06:48:08.426Z,101747.44
2023-09-27T06:51:12.713Z,101748.63
2023-09-27T06:54:15.475Z,101742.66
2023-09-27T06:57:18.517Z,101759.91
2023-09-27T07:00:25.711Z,101755.69
2023-09-27T07:03:34.574Z,101754.63
2023-09-27T07:06:37.347Z,101750.34
2023-09-27T07:09:41.794Z,101747.47
2023-09-27T07:12:44.907Z,101751.06
2023-09-27T07:15:49.162Z,101756.41
2023-09-27T07:18:52.214Z,101757.63
2023-09-27T07:21:55.114Z,101768.66
2023-09-27T07:24:57.758Z,101777.25
2023-09-27T07:28:02.766Z,101781.69
2023-09-27T07:31:06.877Z,101782.28
2023-09-27T07:34:09.610Z,101786.59
2023-09-27T07:37:12.819Z,101785.72
2023-09-27T07:40:16.603Z,101784.06
2023-09-27T07:43:19.339Z,101797.59
2023-09-27T07:46:23.354Z,101792.16
2023-09-27T07:49:26.098Z,101793.28
2023-09-27T07:52:28.806Z,101804.38
2023-09-27T07:55:33.514Z,101804.63
2023-09-27T07:58:36.232Z,101811.56
2023-09-27T08:01:40.305Z,101810.91
2023-09-27T08:04:43.048Z,101809.59
2023-09-27T08:07:46.484Z,101812.28
2023-09-27T08:10:50.932Z,101812.22
2023-09-27T08:13:54.913Z,101809.25
2023-09-27T08:16:59.085Z,101817.41
2023-09-27T08:20:03.362Z,101813.53
2023-09-27T08:23:06.785Z,101827.91
2023-09-27T08:26:13.423Z,101828.25
2023-09-27T08:29:16.358Z,101834.50
2023-09-27T08:32:20.508Z,101841.84
2023-09-27T08:35:23.536Z,101857.03
2023-09-27T08:38:26.305Z,101843.66
2023-09-27T08:41:30.285Z,101847.28
2023-09-27T08:44:33.608Z,101841.06
2023-09-27T08:47:38.040Z,101848.75
2023-09-27T08:50:41.282Z,101849.69
2023-09-27T08:53:44.155Z,101840.47
2023-09-27T08:56:50.280Z,101845.97
2023-09-27T08:59:53.264Z,101842.88
2023-09-27T09:03:00.487Z,101831.94
2023-09-27T09:06:06.210Z,101829.47
2023-09-27T09:09:12.311Z,101824.13
2023-09-27T09:12:15.133Z,101811.22
2023-09-27T09:15:30.248Z,101786.53
2023-09-27T09:18:37.718Z,101770.56
2023-09-27T09:21:40.532Z,101764.91
2023-09-27T09:24:44.880Z,101755.38
2023-09-27T09:28:03.968Z,101749.34
2023-09-27T09:31:06.870Z,101745.13
2023-09-27T09:34:12.718Z,101721.69
2023-09-27T09:37:19.574Z,101718.81
2023-09-27T09:40:22.239Z,101721.03
2023-09-27T09:43:35.447Z,101713.56
2023-09-27T09:46:38.247Z,101718.56
2023-09-27T09:49:43.071Z,101720.03
2023-09-27T09:52:54.550Z,101709.16
2023-09-27T09:56:25.169Z,101707.22
2023-09-27T09:59:29.613Z,101713.53
2023-09-27T10:02:43.240Z,101720.59
2023-09-27T10:05:51.089Z,101735.59
2023-09-27T10:08:55.142Z,101740.78
2023-09-27T10:11:59.236Z,101739.81
2023-09-27T10:15:03.431Z,101726.63
2023-09-27T10:18:35.084Z,101739.41
2023-09-27T10:22:02.740Z,101737.66
2023-09-27T10:25:05.867Z,101740.16
2023-09-27T10:28:09.992Z,101746.75
2023-09-27T10:31:18.702Z,101748.09
2023-09-27T10:34:42.481Z,101750.16
2023-09-27T10:38:05.650Z,101764.00
2023-09-27T10:41:08.540Z,101753.63
2023-09-27T10:44:11.317Z,101757.88
2023-09-27T10:47:15.190Z,101750.53
2023-09-27T10:50:29.007Z,101751.69
2023-09-27T10:53:34.933Z,101746.84
2023-09-27T10:56:40.197Z,101747.97
2023-09-27T10:59:45.262Z,101757.50
2023-09-27T11:02:47.968Z,101754.69
2023-09-27T11:05:50.682Z,101735.56
2023-09-27T11:09:05.297Z,101737.75
2023-09-27T11:12:08.165Z,101737.53
2023-09-27T11:15:13.066Z,101728.84
2023-09-27T11:18:16.101Z,101722.16
2023-09-27T11:21:18.849Z,101708.94
2023-09-27T11:24:22.854Z,101715.63
2023-09-27T11:27:25.573Z,101711.03
2023-09-27T11:30:31.213Z,101720.66
2023-09-27T11:33:34.856Z,101721.34
2023-09-27T11:36:41.728Z,101709.78
2023-09-27T11:39:53.696Z,101702.91
2023-09-27T11:42:56.304Z,101697.63
2023-09-27T11:45:59.302Z,101702.94
2023-09-27T11:49:09.464Z,101701.13
2023-09-27T11:52:12.526Z,101700.66
2023-09-27T11:55:17.331Z,101697.91
2023-09-27T11:58:20.007Z,101695.66
2023-09-27T12:01:22.663Z,101688.72
2023-09-27T12:04:25.402Z,101675.25
2023-09-27T12:07:28.669Z,101677.91
2023-09-27T12:10:33.053Z,101671.19
2023-09-27T12:13:35.667Z,101670.44
2023-09-27T12:16:38.374Z,101667.84
2023-09-27T12:19:41.646Z,101667.41
2023-09-27T12:22:44.500Z,101671.84
2023-09-27T12:25:48.536Z,101681.66
2023-09-27T12:28:51.139Z,101672.75
2023-09-27T12:31:53.806Z,101660.56
2023-09-27T12:34:56.452Z,101650.44
2023-09-27T12:38:00.580Z,101655.81
2023-09-27T12:41:06.083Z,101655.72
2023-09-27T12:44:08.899Z,101663.31
2023-09-27T12:47:15.310Z,101663.00
2023-09-27T12:50:21.319Z,101664.56
2023-09-27T12:53:24.044Z,101656.91
2023-09-27T12:56:28.495Z,101662.03
2023-09-27T12:59:31.319Z,101656.19
2023-09-27T13:02:34.400Z,101653.81
2023-09-27T13:05:37.962Z,101637.53
2023-09-27T13:08:40.758Z,101634.75
2023-09-27T13:11:45.150Z,101632.97
2023-09-27T13:14:47.967Z,101637.22
2023-09-27T13:17:50.610Z,101640.91
2023-09-27T13:20:53.409Z,101632.88
2023-09-27T13:23:56.114Z,101629.94
2023-09-27T13:27:00.225Z,101630.38
2023-09-27T13:30:04.357Z,101638.19
2023-09-27T13:33:07.117Z,101634.63
2023-09-27T13:36:09.837Z,101626.63
2023-09-27T13:39:15.596Z,101616.88
2023-09-27T13:42:19.721Z,101618.03
2023-09-27T13:45:22.705Z,101615.88
2023-09-27T13:48:25.458Z,101614.53
2023-09-27T13:51:28.103Z,101600.63
2023-09-27T13:54:30.734Z,101597.44
2023-09-27T13:57:34.698Z,101603.25
2023-09-27T14:00:37.407Z,101589.81
2023-09-27T14:03:40.692Z,101586.09
2023-09-27T14:06:43.695Z,101591.97
2023-09-27T14:09:46.381Z,101588.69
2023-09-27T14:12:51.846Z,101583.78
2023-09-27T14:15:54.803Z,101575.47
2023-09-27T14:18:58.912Z,101572.16
2023-09-27T14:22:01.581Z,101560.00
2023-09-27T14:25:04.943Z,101557.72
2023-09-27T14:28:08.966Z,101541.81
2023-09-27T14:31:12.308Z,101546.22
2023-09-27T14:34:15.606Z,101560.88
2023-09-27T14:37:18.311Z,101560.66
2023-09-27T14:40:21.760Z,101549.75
2023-09-27T14:43:25.767Z,101535.81
2023-09-27T14:46:28.546Z,101537.75
2023-09-27T14:49:31.285Z,101535.41
2023-09-27T14:52:34.229Z,101534.50
2023-09-27T14:55:36.910Z,101522.09
2023-09-27T14:58:41.225Z,101519.47
2023-09-27T15:01:44.282Z,101520.00
2023-09-27T15:04:47.552Z,101521.59
2023-09-27T15:07:50.769Z,101521.44
2023-09-27T15:10:53.554Z,101525.59
2023-09-27T15:13:59.319Z,101518.13
2023-09-27T15:17:02.043Z,101522.03
2023-09-27T15:20:06.615Z,101514.44
2023-09-27T15:23:09.726Z,101521.56
2023-09-27T15:26:12.669Z,101522.44
2023-09-27T15:29:16.840Z,101526.00
2023-09-27T15:32:19.589Z,101524.28
2023-09-27T15:35:22.265Z,101522.28
2023-09-27T15:38:26.127Z,101516.28
2023-09-27T15:41:29.196Z,101522.28
2023-09-27T15:44:38.960Z,101520.31
2023-09-27T15:47:41.634Z,101519.09
2023-09-27T15:50:44.685Z,101516.81
2023-09-27T15:53:47.303Z,101516.53
2023-09-27T15:56:51.364Z,101509.56
2023-09-27T15:59:55.357Z,101511.44
2023-09-27T16:02:58.261Z,101498.53
2023-09-27T16:06:01.962Z,101490.31
2023-09-27T16:09:06.259Z,101492.94
2023-09-27T16:12:09.055Z,101496.41
2023-09-27T16:15:13.242Z,101494.69
2023-09-27T16:18:17.359Z,101497.41
2023-09-27T16:21:20.510Z,101505.03
2023-09-27T16:24:23.556Z,101495.78
2023-09-27T16:27:26.236Z,101493.09
2023-09-27T16:30:31.498Z,101481.91
2023-09-27T16:33:35.434Z,101491.50
2023-09-27T16:36:38.131Z,101484.88
2023-09-27T16:39:40.792Z,101485.38
2023-09-27T16:42:43.454Z,101486.81
2023-09-27T16:45:47.458Z,101480.69
2023-09-27T16:48:50.400Z,101478.22
2023-09-27T16:51:54.025Z,101476.97
2023-09-27T16:54:56.768Z,101474.72
2023-09-27T16:57:59.417Z,101463.91
2023-09-27T17:01:03.796Z,101459.47
2023-09-27T17:04:07.116Z,101465.13
2023-09-27T17:07:10.811Z,101458.44
2023-09-27T17:10:13.819Z,101455.47
2023-09-27T17:13:16.530Z,101457.09
2023-09-27T17:16:24.463Z,101459.16
2023-09-27T17:19:28.491Z,101464.75
2023-09-27T17:22:31.241Z,101468.13
2023-09-27T17:25:34.659Z,101460.50
2023-09-27T17:28:37.349Z,101459.31
2023-09-27T17:31:42.134Z,101464.44
2023-09-27T17:34:44.894Z,101466.84
2023-09-27T17:37:47.634Z,101473.72
2023-09-27T17:40:50.945Z,101473.16
2023-09-27T17:43:54.054Z,101467.97
2023-09-27T17:46:59.329Z,101468.56
2023-09-27T17:50:02.081Z,101474.41
2023-09-27T17:53:05.846Z,101467.81
2023-09-27T17:56:09.754Z,101466.09
2023-09-27T17:59:12.617Z,101465.97
2023-09-27T18:02:17.479Z,101465.03
2023-09-27T18:05:20.170Z,101462.47
2023-09-27T18:08:22.835Z,101456.22
2023-09-27T18:11:25.455Z,101459.91
2023-09-27T18:14:28.115Z,101452.03
2023-09-27T18:17:32.274Z,101454.28
2023-09-27T18:20:38.510Z,101441.13
2023-09-27T18:23:41.347Z,101438.44
2023-09-27T18:26:44.547Z,101444.50
2023-09-27T18:29:47.553Z,101448.78
2023-09-27T18:32:51.617Z,101443.94
2023-09-27T18:35:54.284Z,101434.47
2023-09-27T18:38:57.052Z,101435.22
2023-09-27T18:41:59.792Z,101441.59
2023-09-27T18:45:02.451Z,101440.06
2023-09-27T18:48:09.299Z,101441.16
2023-09-27T18:51:12.112Z,101429.28
2023-09-27T18:54:14.950Z,101428.00
2023-09-27T18:57:17.593Z,101416.38
2023-09-27T19:00:20.256Z,101423.59
2023-09-27T19:03:25.182Z,101416.47
2023-09-27T19:06:27.835Z,101413.13
2023-09-27T19:09:30.460Z,101415.59
2023-09-27T19:12:33.132Z,101417.69
2023-09-27T19:15:35.784Z,101411.75
2023-09-27T19:18:39.855Z,101419.50
2023-09-27T19:21:43.480Z,101415.97
2023-09-27T19:24:46.127Z,101411.28
2023-09-27T19:27:49.015Z,101410.84
2023-09-27T19:30:51.854Z,101400.75
2023-09-27T19:33:57.147Z,101404.88
2023-09-27T19:37:00.154Z,101400.28
2023-09-27T19:40:03.534Z,101394.81
2023-09-27T19:43:06.170Z,101388.47
2023-09-27T19:46:08.975Z,101389.41
2023-09-27T19:49:13.628Z,101392.28
2023-09-27T19:52:16.362Z,101390.75
2023-09-27T19:55:18.977Z,101382.19
2023-09-27T19:58:21.624Z,101382.84
2023-09-27T20:01:28.477Z,101384.97
2023-09-27T20:04:32.733Z,101382.50
2023-09-27T20:07:35.429Z,101384.63
2023-09-27T20:10:38.130Z,101382.06
2023-09-27T20:13:40.969Z,101384.44
2023-09-27T20:16:43.807Z,101380.44
2023-09-27T20:19:47.942Z,101382.13
2023-09-27T20:22:50.673Z,101374.00
2023-09-27T20:25:53.520Z,101369.63
2023-09-27T20:28:56.204Z,101364.53
2023-09-27T20:31:58.994Z,101359.75
2023-09-27T20:35:05.003Z,101357.88
2023-09-27T20:38:09.331Z,101352.69
2023-09-27T20:41:12.086Z,101351.22
2023-09-27T20:44:14.744Z,101349.56
2023-09-27T20:47:17.733Z,101341.19
2023-09-27T20:50:21.782Z,101348.84
2023-09-27T20:53:24.867Z,101345.00
2023-09-27T20:56:27.492Z,101339.63
2023-09-27T20:59:31.373Z,101336.63
2023-09-27T21:02:34.057Z,101337.66
2023-09-27T21:05:38.133Z,101332.53
2023-09-27T21:08:40.736Z,101338.09
2023-09-27T21:11:43.437Z,101322.69
2023-09-27T21:14:46.489Z,101320.81
2023-09-27T21:17:49.413Z,101312.91
2023-09-27T21:20:53.715Z,101312.34
2023-09-27T21:23:57.336Z,101308.38
2023-09-27T21:27:00.425Z,101310.44
2023-09-27T21:30:04.809Z,101299.13
2023-09-27T21:33:07.578Z,101304.53
2023-09-27T21:36:11.608Z,101302.56
2023-09-27T21:39:14.270Z,101298.91
2023-09-27T21:42:17.780Z,101297.63
2023-09-27T21:45:20.434Z,101294.19
2023-09-27T21:48:23.656Z,101298.50
2023-09-27T21:51:27.691Z,101301.09
2023-09-27T21:54:30.394Z,101296.78
2023-09-27T21:57:33.016Z,101286.66
2023-09-27T22:00:35.955Z,101288.13
2023-09-27T22:03:38.677Z,101282.13
2023-09-27T22:06:45.567Z,101272.44
2023-09-27T22:09:48.201Z,101274.28
2023-09-27T22:12:53.212Z,101272.88
2023-09-27T22:15:59.494Z,101260.63
2023-09-27T22:19:02.841Z,101258.91
2023-09-27T22:22:08.372Z,101257.41
2023-09-27T22:25:14.257Z,101255.03
2023-09-27T22:28:20.116Z,101249.22
2023-09-27T22:31:31.413Z,101250.19
2023-09-27T22:34:38.435Z,101255.38
2023-09-27T22:37:45.146Z,101239.44
2023-09-27T22:40:48.483Z,101237.50
2023-09-27T22:43:51.785Z,101233.72
2023-09-27T22:46:55.364Z,101228.25
2023-09-27T22:49:58.202Z,101230.28
2023-09-27T22:53:05.396Z,101225.56
2023-09-27T22:56:08.285Z,101217.38
2023-09-27T22:59:11.337Z,101222.88
2023-09-27T23:02:14.480Z,101217.81
2023-09-27T23:05:33.536Z,101205.66
2023-09-27T23:08:39.098Z,101200.50
2023-09-27T23:11:42.077Z,101195.63
2023-09-27T23:14:58.744Z,101181.44
2023-09-27T23:18:01.956Z,101165.44
2023-09-27T23:21:18.903Z,101166.44
2023-09-27T23:24:43.932Z,101162.91
2023-09-27T23:27:45.775Z,101160.09
2023-09-27T23:30:51.214Z,101151.09
2023-09-27T23:33:53.287Z,101150.56
2023-09-27T23:37:06.552Z,101160.94
2023-09-27T23:40:15.463Z,101164.72
2023-09-27T23:43:22.201Z,101172.34
2023-09-27T23:46:24.913Z,101155.25
2023-09-27T23:49:31.870Z,101152.47
2023-09-27T23:52:35.640Z,101156.97
2023-09-27T23:55:42.877Z,101165.88
2023-09-27T23:58:46.304Z,101164.38
